sensor_id;sensor_type;location;lat;lon;timestamp;P1;durP1;ratioP1;P2;durP2;ratioP2
44476;SDS011;30180;44.788;10.366;2022-12-08T00:01:44;6.68;;;4.35;;
44476;SDS011;30180;44.788;10.366;2022-12-08T00:04:13;6.82;;;4.57;;
44476;SDS011;30180;44.788;10.366;2022-12-08T00:06:43;6.50;;;4.30;;
44476;SDS011;30180;44.788;10.366;2022-12-08T00:09:30;6.43;;;4.13;;
44476;SDS011;30180;44.788;10.366;2022-12-08T00:12:05;6.90;;;4.28;;
44476;SDS011;30180;44.788;10.366;2022-12-08T00:14:35;7.95;;;4.30;;
44476;SDS011;30180;44.788;10.366;2022-12-08T00:17:06;7.63;;;4.15;;
44476;SDS011;30180;44.788;10.366;2022-12-08T00:19:36;6.70;;;4.20;;
44476;SDS011;30180;44.788;10.366;2022-12-08T00:22:07;7.20;;;4.40;;
44476;SDS011;30180;44.788;10.366;2022-12-08T00:24:37;6.90;;;4.57;;
44476;SDS011;30180;44.788;10.366;2022-12-08T00:27:08;6.07;;;4.55;;
44476;SDS011;30180;44.788;10.366;2022-12-08T00:29:37;6.45;;;4.05;;
44476;SDS011;30180;44.788;10.366;2022-12-08T00:32:05;7.68;;;4.80;;
44476;SDS011;30180;44.788;10.366;2022-12-08T00:34:34;7.28;;;4.55;;
44476;SDS011;30180;44.788;10.366;2022-12-08T00:37:02;7.85;;;4.57;;
44476;SDS011;30180;44.788;10.366;2022-12-08T00:39:32;8.82;;;4.72;;
44476;SDS011;30180;44.788;10.366;2022-12-08T00:42:00;8.90;;;4.70;;
44476;SDS011;30180;44.788;10.366;2022-12-08T00:44:41;6.77;;;4.30;;
44476;SDS011;30180;44.788;10.366;2022-12-08T00:47:11;7.03;;;4.60;;
44476;SDS011;30180;44.788;10.366;2022-12-08T00:49:39;8.00;;;4.50;;
44476;SDS011;30180;44.788;10.366;2022-12-08T00:52:08;7.07;;;4.30;;
44476;SDS011;30180;44.788;10.366;2022-12-08T00:54:39;7.28;;;4.60;;
44476;SDS011;30180;44.788;10.366;2022-12-08T00:57:07;7.15;;;4.18;;
44476;SDS011;30180;44.788;10.366;2022-12-08T00:59:36;7.55;;;4.80;;
44476;SDS011;30180;44.788;10.366;2022-12-08T01:02:05;7.90;;;4.80;;
44476;SDS011;30180;44.788;10.366;2022-12-08T01:04:33;7.57;;;4.97;;
44476;SDS011;30180;44.788;10.366;2022-12-08T01:07:01;7.32;;;4.88;;
44476;SDS011;30180;44.788;10.366;2022-12-08T01:09:29;8.77;;;4.60;;
44476;SDS011;30180;44.788;10.366;2022-12-08T01:11:59;7.07;;;4.07;;
44476;SDS011;30180;44.788;10.366;2022-12-08T01:14:27;10.00;;;4.80;;
44476;SDS011;30180;44.788;10.366;2022-12-08T01:16:56;7.25;;;4.35;;
44476;SDS011;30180;44.788;10.366;2022-12-08T01:19:24;7.07;;;4.57;;
44476;SDS011;30180;44.788;10.366;2022-12-08T01:21:52;9.52;;;5.00;;
44476;SDS011;30180;44.788;10.366;2022-12-08T01:24:20;7.95;;;4.82;;
44476;SDS011;30180;44.788;10.366;2022-12-08T01:26:49;7.05;;;4.65;;
44476;SDS011;30180;44.788;10.366;2022-12-08T01:29:19;8.02;;;4.70;;
44476;SDS011;30180;44.788;10.366;2022-12-08T01:31:47;7.10;;;4.53;;
44476;SDS011;30180;44.788;10.366;2022-12-08T01:34:15;8.45;;;4.70;;
44476;SDS011;30180;44.788;10.366;2022-12-08T01:36:44;8.98;;;4.60;;
44476;SDS011;30180;44.788;10.366;2022-12-08T01:39:13;6.60;;;4.30;;
44476;SDS011;30180;44.788;10.366;2022-12-08T01:41:44;7.05;;;4.50;;
44476;SDS011;30180;44.788;10.366;2022-12-08T01:47:31;7.03;;;4.60;;
44476;SDS011;30180;44.788;10.366;2022-12-08T01:50:04;7.10;;;4.50;;
44476;SDS011;30180;44.788;10.366;2022-12-08T01:52:36;7.47;;;5.05;;
44476;SDS011;30180;44.788;10.366;2022-12-08T01:55:08;7.03;;;4.72;;
44476;SDS011;30180;44.788;10.366;2022-12-08T01:57:40;7.03;;;4.43;;
44476;SDS011;30180;44.788;10.366;2022-12-08T02:00:13;7.00;;;4.10;;
44476;SDS011;30180;44.788;10.366;2022-12-08T02:02:47;7.15;;;4.13;;
44476;SDS011;30180;44.788;10.366;2022-12-08T02:05:19;6.57;;;4.15;;
44476;SDS011;30180;44.788;10.366;2022-12-08T02:07:50;6.85;;;4.35;;
44476;SDS011;30180;44.788;10.366;2022-12-08T02:10:19;7.07;;;4.70;;
44476;SDS011;30180;44.788;10.366;2022-12-08T02:12:49;6.90;;;4.47;;
44476;SDS011;30180;44.788;10.366;2022-12-08T02:15:20;7.18;;;4.45;;
44476;SDS011;30180;44.788;10.366;2022-12-08T02:18:00;7.78;;;4.63;;
44476;SDS011;30180;44.788;10.366;2022-12-08T02:20:44;6.35;;;4.10;;
44476;SDS011;30180;44.788;10.366;2022-12-08T02:23:22;7.70;;;4.68;;
44476;SDS011;30180;44.788;10.366;2022-12-08T02:26:04;7.32;;;4.65;;
44476;SDS011;30180;44.788;10.366;2022-12-08T02:29:07;5.97;;;4.00;;
44476;SDS011;30180;44.788;10.366;2022-12-08T02:32:04;5.90;;;4.07;;
44476;SDS011;30180;44.788;10.366;2022-12-08T02:34:49;7.50;;;4.53;;
44476;SDS011;30180;44.788;10.366;2022-12-08T02:37:25;6.63;;;4.32;;
44476;SDS011;30180;44.788;10.366;2022-12-08T02:39:58;7.22;;;4.35;;
44476;SDS011;30180;44.788;10.366;2022-12-08T02:42:36;6.38;;;4.43;;
44476;SDS011;30180;44.788;10.366;2022-12-08T02:45:10;6.55;;;4.47;;
44476;SDS011;30180;44.788;10.366;2022-12-08T02:47:43;6.28;;;4.15;;
44476;SDS011;30180;44.788;10.366;2022-12-08T02:50:13;6.80;;;4.50;;
44476;SDS011;30180;44.788;10.366;2022-12-08T02:52:42;7.50;;;4.35;;
44476;SDS011;30180;44.788;10.366;2022-12-08T02:55:22;7.40;;;4.35;;
44476;SDS011;30180;44.788;10.366;2022-12-08T02:58:00;7.50;;;4.32;;
44476;SDS011;30180;44.788;10.366;2022-12-08T03:00:41;6.53;;;4.18;;
44476;SDS011;30180;44.788;10.366;2022-12-08T03:03:22;6.82;;;4.50;;
44476;SDS011;30180;44.788;10.366;2022-12-08T03:06:02;6.63;;;4.68;;
44476;SDS011;30180;44.788;10.366;2022-12-08T03:08:35;6.70;;;4.20;;
44476;SDS011;30180;44.788;10.366;2022-12-08T03:11:09;7.32;;;4.32;;
44476;SDS011;30180;44.788;10.366;2022-12-08T03:13:43;6.85;;;4.63;;
44476;SDS011;30180;44.788;10.366;2022-12-08T03:16:14;6.07;;;3.85;;
44476;SDS011;30180;44.788;10.366;2022-12-08T03:18:46;6.97;;;4.40;;
44476;SDS011;30180;44.788;10.366;2022-12-08T03:21:19;7.95;;;4.60;;
44476;SDS011;30180;44.788;10.366;2022-12-08T03:23:49;6.53;;;4.50;;
44476;SDS011;30180;44.788;10.366;2022-12-08T03:26:21;5.75;;;3.83;;
44476;SDS011;30180;44.788;10.366;2022-12-08T03:28:55;7.75;;;4.60;;
44476;SDS011;30180;44.788;10.366;2022-12-08T03:31:24;6.85;;;4.07;;
44476;SDS011;30180;44.788;10.366;2022-12-08T03:33:55;7.15;;;4.38;;
44476;SDS011;30180;44.788;10.366;2022-12-08T03:36:26;6.72;;;4.22;;
44476;SDS011;30180;44.788;10.366;2022-12-08T03:38:54;6.60;;;4.20;;
44476;SDS011;30180;44.788;10.366;2022-12-08T03:41:23;6.38;;;4.28;;
44476;SDS011;30180;44.788;10.366;2022-12-08T03:43:52;6.38;;;4.20;;
44476;SDS011;30180;44.788;10.366;2022-12-08T03:46:22;6.90;;;4.40;;
44476;SDS011;30180;44.788;10.366;2022-12-08T03:48:51;7.18;;;4.22;;
44476;SDS011;30180;44.788;10.366;2022-12-08T03:51:20;6.80;;;4.43;;
44476;SDS011;30180;44.788;10.366;2022-12-08T03:53:50;6.22;;;4.03;;
44476;SDS011;30180;44.788;10.366;2022-12-08T03:56:20;6.80;;;4.65;;
44476;SDS011;30180;44.788;10.366;2022-12-08T03:58:50;6.95;;;4.57;;
44476;SDS011;30180;44.788;10.366;2022-12-08T04:01:19;6.90;;;4.10;;
44476;SDS011;30180;44.788;10.366;2022-12-08T04:03:47;6.95;;;4.35;;
44476;SDS011;30180;44.788;10.366;2022-12-08T04:06:16;7.10;;;4.28;;
44476;SDS011;30180;44.788;10.366;2022-12-08T04:08:45;7.03;;;4.55;;
44476;SDS011;30180;44.788;10.366;2022-12-08T04:11:15;6.65;;;4.53;;
44476;SDS011;30180;44.788;10.366;2022-12-08T04:13:43;6.70;;;4.22;;
44476;SDS011;30180;44.788;10.366;2022-12-08T04:16:13;8.50;;;4.80;;
44476;SDS011;30180;44.788;10.366;2022-12-08T04:18:43;6.30;;;4.20;;
44476;SDS011;30180;44.788;10.366;2022-12-08T04:21:12;7.68;;;4.70;;
44476;SDS011;30180;44.788;10.366;2022-12-08T04:23:40;6.53;;;4.07;;
44476;SDS011;30180;44.788;10.366;2022-12-08T04:26:09;6.85;;;4.40;;
44476;SDS011;30180;44.788;10.366;2022-12-08T04:28:39;7.05;;;4.40;;
44476;SDS011;30180;44.788;10.366;2022-12-08T04:31:07;6.90;;;4.40;;
44476;SDS011;30180;44.788;10.366;2022-12-08T04:33:35;6.55;;;3.95;;
44476;SDS011;30180;44.788;10.366;2022-12-08T04:36:05;6.90;;;4.50;;
44476;SDS011;30180;44.788;10.366;2022-12-08T04:38:34;6.88;;;4.55;;
44476;SDS011;30180;44.788;10.366;2022-12-08T04:41:02;6.93;;;4.30;;
44476;SDS011;30180;44.788;10.366;2022-12-08T04:43:30;6.95;;;4.22;;
44476;SDS011;30180;44.788;10.366;2022-12-08T04:46:00;6.93;;;4.40;;
44476;SDS011;30180;44.788;10.366;2022-12-08T04:48:28;6.75;;;4.25;;
44476;SDS011;30180;44.788;10.366;2022-12-08T04:50:57;7.18;;;4.10;;
44476;SDS011;30180;44.788;10.366;2022-12-08T04:53:25;8.02;;;4.50;;
44476;SDS011;30180;44.788;10.366;2022-12-08T04:55:53;7.15;;;4.18;;
44476;SDS011;30180;44.788;10.366;2022-12-08T04:58:22;6.35;;;4.00;;
44476;SDS011;30180;44.788;10.366;2022-12-08T05:00:50;6.72;;;4.18;;
44476;SDS011;30180;44.788;10.366;2022-12-08T05:03:20;6.95;;;4.25;;
44476;SDS011;30180;44.788;10.366;2022-12-08T05:05:54;7.13;;;4.55;;
44476;SDS011;30180;44.788;10.366;2022-12-08T05:08:22;6.47;;;4.20;;
44476;SDS011;30180;44.788;10.366;2022-12-08T05:10:50;5.85;;;3.85;;
44476;SDS011;30180;44.788;10.366;2022-12-08T05:13:19;5.85;;;3.90;;
44476;SDS011;30180;44.788;10.366;2022-12-08T05:15:47;7.22;;;4.38;;
44476;SDS011;30180;44.788;10.366;2022-12-08T05:18:15;5.90;;;3.85;;
44476;SDS011;30180;44.788;10.366;2022-12-08T05:20:45;6.93;;;4.10;;
44476;SDS011;30180;44.788;10.366;2022-12-08T05:23:13;5.72;;;4.10;;
44476;SDS011;30180;44.788;10.366;2022-12-08T05:25:42;6.88;;;4.30;;
44476;SDS011;30180;44.788;10.366;2022-12-08T05:28:10;6.53;;;3.95;;
44476;SDS011;30180;44.788;10.366;2022-12-08T05:30:59;6.15;;;4.10;;
44476;SDS011;30180;44.788;10.366;2022-12-08T05:33:27;7.35;;;4.57;;
44476;SDS011;30180;44.788;10.366;2022-12-08T05:35:57;7.22;;;3.90;;
44476;SDS011;30180;44.788;10.366;2022-12-08T05:38:25;6.93;;;4.47;;
44476;SDS011;30180;44.788;10.366;2022-12-08T05:40:53;6.35;;;4.15;;
44476;SDS011;30180;44.788;10.366;2022-12-08T05:43:21;6.18;;;4.07;;
44476;SDS011;30180;44.788;10.366;2022-12-08T05:45:49;6.68;;;4.45;;
44476;SDS011;30180;44.788;10.366;2022-12-08T05:48:18;5.90;;;3.92;;
44476;SDS011;30180;44.788;10.366;2022-12-08T05:50:46;6.32;;;4.22;;
44476;SDS011;30180;44.788;10.366;2022-12-08T05:53:17;6.63;;;4.25;;
44476;SDS011;30180;44.788;10.366;2022-12-08T05:55:46;5.97;;;3.95;;
44476;SDS011;30180;44.788;10.366;2022-12-08T05:58:15;6.28;;;4.20;;
44476;SDS011;30180;44.788;10.366;2022-12-08T06:00:45;7.13;;;4.60;;
44476;SDS011;30180;44.788;10.366;2022-12-08T06:03:14;6.38;;;4.35;;
44476;SDS011;30180;44.788;10.366;2022-12-08T06:05:44;6.47;;;4.30;;
44476;SDS011;30180;44.788;10.366;2022-12-08T06:08:13;6.00;;;4.18;;
44476;SDS011;30180;44.788;10.366;2022-12-08T06:10:43;6.63;;;4.28;;
44476;SDS011;30180;44.788;10.366;2022-12-08T06:13:12;5.90;;;4.28;;
44476;SDS011;30180;44.788;10.366;2022-12-08T06:15:41;6.78;;;4.43;;
44476;SDS011;30180;44.788;10.366;2022-12-08T06:18:09;6.78;;;4.25;;
44476;SDS011;30180;44.788;10.366;2022-12-08T06:20:38;6.60;;;4.47;;
44476;SDS011;30180;44.788;10.366;2022-12-08T06:23:06;6.13;;;4.18;;
44476;SDS011;30180;44.788;10.366;2022-12-08T06:25:34;7.18;;;4.35;;
44476;SDS011;30180;44.788;10.366;2022-12-08T06:28:05;6.53;;;4.38;;
44476;SDS011;30180;44.788;10.366;2022-12-08T06:30:33;7.38;;;3.90;;
44476;SDS011;30180;44.788;10.366;2022-12-08T06:33:02;8.05;;;4.72;;
44476;SDS011;30180;44.788;10.366;2022-12-08T06:35:30;6.05;;;3.78;;
44476;SDS011;30180;44.788;10.366;2022-12-08T06:37:58;7.07;;;3.75;;
44476;SDS011;30180;44.788;10.366;2022-12-08T06:40:26;15.02;;;4.63;;
44476;SDS011;30180;44.788;10.366;2022-12-08T06:42:55;9.02;;;4.45;;
44476;SDS011;30180;44.788;10.366;2022-12-08T06:45:24;8.10;;;4.60;;
44476;SDS011;30180;44.788;10.366;2022-12-08T06:47:53;8.75;;;4.40;;
44476;SDS011;30180;44.788;10.366;2022-12-08T06:50:21;8.23;;;4.47;;
44476;SDS011;30180;44.788;10.366;2022-12-08T06:52:49;8.95;;;4.75;;
44476;SDS011;30180;44.788;10.366;2022-12-08T06:55:29;9.17;;;4.10;;
44476;SDS011;30180;44.788;10.366;2022-12-08T06:58:18;9.13;;;5.03;;
44476;SDS011;30180;44.788;10.366;2022-12-08T07:00:48;8.30;;;4.57;;
44476;SDS011;30180;44.788;10.366;2022-12-08T07:03:16;9.20;;;4.22;;
44476;SDS011;30180;44.788;10.366;2022-12-08T07:05:45;6.40;;;4.07;;
44476;SDS011;30180;44.788;10.366;2022-12-08T07:08:13;6.45;;;4.05;;
44476;SDS011;30180;44.788;10.366;2022-12-08T07:10:41;8.52;;;4.30;;
44476;SDS011;30180;44.788;10.366;2022-12-08T07:13:10;7.78;;;4.13;;
44476;SDS011;30180;44.788;10.366;2022-12-08T07:15:38;6.68;;;4.22;;
44476;SDS011;30180;44.788;10.366;2022-12-08T07:18:08;8.40;;;4.00;;
44476;SDS011;30180;44.788;10.366;2022-12-08T07:20:36;5.75;;;3.83;;
44476;SDS011;30180;44.788;10.366;2022-12-08T07:23:04;7.55;;;4.53;;
44476;SDS011;30180;44.788;10.366;2022-12-08T07:25:33;7.25;;;4.50;;
44476;SDS011;30180;44.788;10.366;2022-12-08T07:28:06;7.68;;;4.50;;
44476;SDS011;30180;44.788;10.366;2022-12-08T07:30:35;13.40;;;4.90;;
44476;SDS011;30180;44.788;10.366;2022-12-08T07:33:04;10.90;;;5.07;;
44476;SDS011;30180;44.788;10.366;2022-12-08T07:35:33;11.20;;;4.80;;
44476;SDS011;30180;44.788;10.366;2022-12-08T07:38:02;7.80;;;5.03;;
44476;SDS011;30180;44.788;10.366;2022-12-08T07:40:30;8.18;;;4.35;;
44476;SDS011;30180;44.788;10.366;2022-12-08T07:42:58;8.95;;;4.70;;
44476;SDS011;30180;44.788;10.366;2022-12-08T07:45:26;9.80;;;4.53;;
44476;SDS011;30180;44.788;10.366;2022-12-08T07:47:57;7.90;;;4.57;;
44476;SDS011;30180;44.788;10.366;2022-12-08T07:50:25;7.65;;;4.20;;
44476;SDS011;30180;44.788;10.366;2022-12-08T07:52:55;6.78;;;4.20;;
44476;SDS011;30180;44.788;10.366;2022-12-08T07:55:23;8.07;;;5.00;;
44476;SDS011;30180;44.788;10.366;2022-12-08T07:57:51;8.00;;;4.72;;
44476;SDS011;30180;44.788;10.366;2022-12-08T08:00:20;9.13;;;4.88;;
44476;SDS011;30180;44.788;10.366;2022-12-08T08:02:48;9.25;;;4.70;;
44476;SDS011;30180;44.788;10.366;2022-12-08T08:05:16;7.60;;;4.72;;
44476;SDS011;30180;44.788;10.366;2022-12-08T08:07:46;11.00;;;4.97;;
44476;SDS011;30180;44.788;10.366;2022-12-08T08:10:15;9.45;;;5.40;;
44476;SDS011;30180;44.788;10.366;2022-12-08T08:12:44;11.38;;;5.63;;
44476;SDS011;30180;44.788;10.366;2022-12-08T08:15:12;10.93;;;4.93;;
44476;SDS011;30180;44.788;10.366;2022-12-08T08:17:41;12.18;;;5.40;;
44476;SDS011;30180;44.788;10.366;2022-12-08T08:20:09;8.73;;;4.80;;
44476;SDS011;30180;44.788;10.366;2022-12-08T08:22:38;10.50;;;5.13;;
44476;SDS011;30180;44.788;10.366;2022-12-08T08:25:07;13.23;;;4.57;;
44476;SDS011;30180;44.788;10.366;2022-12-08T08:27:37;11.90;;;5.28;;
44476;SDS011;30180;44.788;10.366;2022-12-08T08:30:05;8.10;;;4.85;;
44476;SDS011;30180;44.788;10.366;2022-12-08T08:32:42;9.73;;;4.93;;
44476;SDS011;30180;44.788;10.366;2022-12-08T08:35:10;12.20;;;5.63;;
44476;SDS011;30180;44.788;10.366;2022-12-08T08:37:39;10.02;;;6.03;;
44476;SDS011;30180;44.788;10.366;2022-12-08T08:40:14;19.65;;;6.38;;
44476;SDS011;30180;44.788;10.366;2022-12-08T08:42:44;23.08;;;6.93;;
44476;SDS011;30180;44.788;10.366;2022-12-08T08:45:12;21.08;;;5.85;;
44476;SDS011;30180;44.788;10.366;2022-12-08T08:47:40;15.13;;;5.72;;
44476;SDS011;30180;44.788;10.366;2022-12-08T08:50:08;18.98;;;6.03;;
44476;SDS011;30180;44.788;10.366;2022-12-08T08:52:37;24.55;;;6.63;;
44476;SDS011;30180;44.788;10.366;2022-12-08T08:55:05;14.73;;;6.18;;
44476;SDS011;30180;44.788;10.366;2022-12-08T08:57:34;17.17;;;5.90;;
44476;SDS011;30180;44.788;10.366;2022-12-08T09:00:04;20.02;;;6.88;;
44476;SDS011;30180;44.788;10.366;2022-12-08T09:02:35;16.13;;;6.05;;
44476;SDS011;30180;44.788;10.366;2022-12-08T09:05:04;23.00;;;6.78;;
44476;SDS011;30180;44.788;10.366;2022-12-08T09:07:33;15.82;;;5.70;;
44476;SDS011;30180;44.788;10.366;2022-12-08T09:10:01;16.75;;;6.18;;
44476;SDS011;30180;44.788;10.366;2022-12-08T09:12:31;13.65;;;6.20;;
44476;SDS011;30180;44.788;10.366;2022-12-08T09:14:59;19.65;;;6.28;;
44476;SDS011;30180;44.788;10.366;2022-12-08T09:17:29;20.52;;;6.18;;
44476;SDS011;30180;44.788;10.366;2022-12-08T09:19:58;22.10;;;6.43;;
44476;SDS011;30180;44.788;10.366;2022-12-08T09:22:26;16.70;;;6.30;;
44476;SDS011;30180;44.788;10.366;2022-12-08T09:24:55;20.65;;;6.53;;
44476;SDS011;30180;44.788;10.366;2022-12-08T09:27:23;15.15;;;6.20;;
44476;SDS011;30180;44.788;10.366;2022-12-08T09:29:51;17.55;;;6.25;;
44476;SDS011;30180;44.788;10.366;2022-12-08T09:32:20;16.42;;;6.38;;
44476;SDS011;30180;44.788;10.366;2022-12-08T09:34:49;22.45;;;6.95;;
44476;SDS011;30180;44.788;10.366;2022-12-08T09:37:20;20.60;;;6.38;;
44476;SDS011;30180;44.788;10.366;2022-12-08T09:39:49;19.67;;;6.78;;
44476;SDS011;30180;44.788;10.366;2022-12-08T09:42:18;24.38;;;7.10;;
44476;SDS011;30180;44.788;10.366;2022-12-08T09:44:58;19.40;;;7.07;;
44476;SDS011;30180;44.788;10.366;2022-12-08T09:47:31;12.85;;;6.43;;
44476;SDS011;30180;44.788;10.366;2022-12-08T09:50:06;17.35;;;6.90;;
44476;SDS011;30180;44.788;10.366;2022-12-08T09:52:40;17.92;;;6.47;;
44476;SDS011;30180;44.788;10.366;2022-12-08T09:55:14;16.73;;;6.47;;
44476;SDS011;30180;44.788;10.366;2022-12-08T09:57:48;18.33;;;6.45;;
44476;SDS011;30180;44.788;10.366;2022-12-08T10:00:24;14.63;;;6.93;;
44476;SDS011;30180;44.788;10.366;2022-12-08T10:02:52;16.38;;;6.43;;
44476;SDS011;30180;44.788;10.366;2022-12-08T10:05:23;18.63;;;6.30;;
44476;SDS011;30180;44.788;10.366;2022-12-08T10:07:58;17.17;;;6.28;;
44476;SDS011;30180;44.788;10.366;2022-12-08T10:10:34;13.52;;;6.22;;
44476;SDS011;30180;44.788;10.366;2022-12-08T10:13:07;12.32;;;6.00;;
44476;SDS011;30180;44.788;10.366;2022-12-08T10:15:46;18.35;;;6.38;;
44476;SDS011;30180;44.788;10.366;2022-12-08T10:18:26;13.90;;;6.13;;
44476;SDS011;30180;44.788;10.366;2022-12-08T10:20:59;19.17;;;6.32;;
44476;SDS011;30180;44.788;10.366;2022-12-08T10:23:38;15.80;;;6.10;;
44476;SDS011;30180;44.788;10.366;2022-12-08T10:26:11;12.93;;;6.32;;
44476;SDS011;30180;44.788;10.366;2022-12-08T10:31:15;16.10;;;5.75;;
44476;SDS011;30180;44.788;10.366;2022-12-08T10:33:44;14.55;;;6.63;;
44476;SDS011;30180;44.788;10.366;2022-12-08T10:36:16;18.58;;;6.25;;
44476;SDS011;30180;44.788;10.366;2022-12-08T10:38:44;21.00;;;6.22;;
44476;SDS011;30180;44.788;10.366;2022-12-08T10:41:13;14.30;;;5.88;;
44476;SDS011;30180;44.788;10.366;2022-12-08T10:43:45;20.25;;;6.32;;
44476;SDS011;30180;44.788;10.366;2022-12-08T10:46:15;20.58;;;6.57;;
44476;SDS011;30180;44.788;10.366;2022-12-08T10:51:27;16.95;;;6.22;;
44476;SDS011;30180;44.788;10.366;2022-12-08T10:54:01;16.23;;;6.00;;
44476;SDS011;30180;44.788;10.366;2022-12-08T10:56:31;17.05;;;6.38;;
44476;SDS011;30180;44.788;10.366;2022-12-08T10:59:11;14.35;;;5.68;;
44476;SDS011;30180;44.788;10.366;2022-12-08T11:04:12;14.48;;;6.05;;
44476;SDS011;30180;44.788;10.366;2022-12-08T11:06:45;13.27;;;5.65;;
44476;SDS011;30180;44.788;10.366;2022-12-08T11:09:22;15.63;;;6.00;;
44476;SDS011;30180;44.788;10.366;2022-12-08T11:11:57;15.32;;;6.00;;
44476;SDS011;30180;44.788;10.366;2022-12-08T11:14:27;16.55;;;5.90;;
44476;SDS011;30180;44.788;10.366;2022-12-08T11:17:01;14.80;;;5.85;;
44476;SDS011;30180;44.788;10.366;2022-12-08T11:19:33;14.00;;;5.68;;
44476;SDS011;30180;44.788;10.366;2022-12-08T11:22:20;17.55;;;5.43;;
44476;SDS011;30180;44.788;10.366;2022-12-08T11:24:58;12.95;;;5.82;;
44476;SDS011;30180;44.788;10.366;2022-12-08T11:27:28;16.33;;;6.22;;
44476;SDS011;30180;44.788;10.366;2022-12-08T11:29:59;13.70;;;5.60;;
44476;SDS011;30180;44.788;10.366;2022-12-08T11:32:29;13.00;;;5.95;;
44476;SDS011;30180;44.788;10.366;2022-12-08T11:34:58;13.60;;;6.03;;
44476;SDS011;30180;44.788;10.366;2022-12-08T11:37:30;15.73;;;5.68;;
44476;SDS011;30180;44.788;10.366;2022-12-08T11:40:03;17.77;;;6.05;;
44476;SDS011;30180;44.788;10.366;2022-12-08T11:42:36;25.75;;;6.43;;
44476;SDS011;30180;44.788;10.366;2022-12-08T11:45:18;17.50;;;5.65;;
44476;SDS011;30180;44.788;10.366;2022-12-08T11:47:52;18.38;;;6.55;;
44476;SDS011;30180;44.788;10.366;2022-12-08T11:50:28;15.20;;;5.78;;
44476;SDS011;30180;44.788;10.366;2022-12-08T11:53:03;16.77;;;5.68;;
44476;SDS011;30180;44.788;10.366;2022-12-08T11:55:39;12.55;;;5.32;;
44476;SDS011;30180;44.788;10.366;2022-12-08T11:58:15;20.13;;;5.90;;
44476;SDS011;30180;44.788;10.366;2022-12-08T12:00:46;13.48;;;5.90;;
44476;SDS011;30180;44.788;10.366;2022-12-08T12:03:17;14.70;;;6.15;;
44476;SDS011;30180;44.788;10.366;2022-12-08T12:05:58;13.13;;;5.78;;
44476;SDS011;30180;44.788;10.366;2022-12-08T12:09:10;15.23;;;5.82;;
44476;SDS011;30180;44.788;10.366;2022-12-08T12:11:47;16.40;;;5.95;;
44476;SDS011;30180;44.788;10.366;2022-12-08T12:14:45;10.43;;;5.93;;
44476;SDS011;30180;44.788;10.366;2022-12-08T12:17:30;11.88;;;5.50;;
44476;SDS011;30180;44.788;10.366;2022-12-08T12:20:08;11.65;;;5.32;;
44476;SDS011;30180;44.788;10.366;2022-12-08T12:22:42;12.05;;;5.15;;
44476;SDS011;30180;44.788;10.366;2022-12-08T12:25:17;8.80;;;5.20;;
44476;SDS011;30180;44.788;10.366;2022-12-08T12:27:49;11.75;;;6.43;;
44476;SDS011;30180;44.788;10.366;2022-12-08T12:30:23;20.25;;;7.55;;
44476;SDS011;30180;44.788;10.366;2022-12-08T12:32:54;19.07;;;8.50;;
44476;SDS011;30180;44.788;10.366;2022-12-08T12:35:27;14.75;;;6.50;;
44476;SDS011;30180;44.788;10.366;2022-12-08T12:38:00;15.75;;;7.20;;
44476;SDS011;30180;44.788;10.366;2022-12-08T12:40:56;15.70;;;6.38;;
44476;SDS011;30180;44.788;10.366;2022-12-08T12:43:28;11.55;;;7.00;;
44476;SDS011;30180;44.788;10.366;2022-12-08T12:55:19;16.48;;;6.68;;
44476;SDS011;30180;44.788;10.366;2022-12-08T13:01:36;13.20;;;5.97;;
44476;SDS011;30180;44.788;10.366;2022-12-08T13:04:29;12.55;;;5.53;;
44476;SDS011;30180;44.788;10.366;2022-12-08T13:07:00;13.05;;;6.15;;
44476;SDS011;30180;44.788;10.366;2022-12-08T13:09:32;12.05;;;6.20;;
44476;SDS011;30180;44.788;10.366;2022-12-08T13:12:08;10.73;;;5.78;;
44476;SDS011;30180;44.788;10.366;2022-12-08T13:14:43;10.52;;;5.68;;
44476;SDS011;30180;44.788;10.366;2022-12-08T13:17:15;14.02;;;6.47;;
44476;SDS011;30180;44.788;10.366;2022-12-08T13:19:52;21.55;;;7.47;;
44476;SDS011;30180;44.788;10.366;2022-12-08T13:25:45;24.98;;;9.68;;
44476;SDS011;30180;44.788;10.366;2022-12-08T13:28:19;35.53;;;13.25;;
44476;SDS011;30180;44.788;10.366;2022-12-08T13:30:51;34.72;;;12.80;;
44476;SDS011;30180;44.788;10.366;2022-12-08T13:33:24;39.70;;;12.57;;
44476;SDS011;30180;44.788;10.366;2022-12-08T13:36:11;36.55;;;13.30;;
44476;SDS011;30180;44.788;10.366;2022-12-08T13:38:46;38.85;;;12.82;;
44476;SDS011;30180;44.788;10.366;2022-12-08T13:41:21;31.85;;;12.57;;
44476;SDS011;30180;44.788;10.366;2022-12-08T13:43:54;31.08;;;12.07;;
44476;SDS011;30180;44.788;10.366;2022-12-08T13:46:50;31.50;;;11.95;;
44476;SDS011;30180;44.788;10.366;2022-12-08T13:49:42;33.60;;;12.57;;
44476;SDS011;30180;44.788;10.366;2022-12-08T13:52:37;32.15;;;11.70;;
44476;SDS011;30180;44.788;10.366;2022-12-08T13:55:32;32.63;;;11.02;;
44476;SDS011;30180;44.788;10.366;2022-12-08T13:58:24;32.08;;;11.35;;
44476;SDS011;30180;44.788;10.366;2022-12-08T14:01:00;32.60;;;11.88;;
44476;SDS011;30180;44.788;10.366;2022-12-08T14:03:36;29.10;;;11.50;;
44476;SDS011;30180;44.788;10.366;2022-12-08T14:06:34;34.42;;;10.90;;
44476;SDS011;30180;44.788;10.366;2022-12-08T14:09:05;28.93;;;10.83;;
44476;SDS011;30180;44.788;10.366;2022-12-08T14:11:38;29.35;;;11.00;;
44476;SDS011;30180;44.788;10.366;2022-12-08T14:14:08;28.67;;;10.23;;
44476;SDS011;30180;44.788;10.366;2022-12-08T14:17:03;32.38;;;10.25;;
44476;SDS011;30180;44.788;10.366;2022-12-08T14:19:34;24.17;;;9.45;;
44476;SDS011;30180;44.788;10.366;2022-12-08T14:22:08;31.67;;;10.90;;
44476;SDS011;30180;44.788;10.366;2022-12-08T14:24:38;21.13;;;9.57;;
44476;SDS011;30180;44.788;10.366;2022-12-08T14:27:07;23.33;;;10.30;;
44476;SDS011;30180;44.788;10.366;2022-12-08T14:29:40;28.65;;;9.85;;
44476;SDS011;30180;44.788;10.366;2022-12-08T14:32:24;26.42;;;10.23;;
44476;SDS011;30180;44.788;10.366;2022-12-08T14:34:58;31.63;;;10.43;;
44476;SDS011;30180;44.788;10.366;2022-12-08T14:37:30;27.92;;;10.13;;
44476;SDS011;30180;44.788;10.366;2022-12-08T14:40:00;24.40;;;10.30;;
44476;SDS011;30180;44.788;10.366;2022-12-08T14:42:40;26.52;;;9.32;;
44476;SDS011;30180;44.788;10.366;2022-12-08T14:45:11;25.20;;;9.73;;
44476;SDS011;30180;44.788;10.366;2022-12-08T14:53:09;26.63;;;9.60;;
44476;SDS011;30180;44.788;10.366;2022-12-08T14:55:42;18.65;;;9.35;;
44476;SDS011;30180;44.788;10.366;2022-12-08T14:58:16;25.00;;;9.35;;
44476;SDS011;30180;44.788;10.366;2022-12-08T15:00:47;26.63;;;10.23;;
44476;SDS011;30180;44.788;10.366;2022-12-08T15:03:20;24.33;;;9.15;;
44476;SDS011;30180;44.788;10.366;2022-12-08T15:05:51;22.23;;;8.75;;
44476;SDS011;30180;44.788;10.366;2022-12-08T15:08:22;23.58;;;9.82;;
44476;SDS011;30180;44.788;10.366;2022-12-08T15:13:44;20.50;;;8.98;;
44476;SDS011;30180;44.788;10.366;2022-12-08T15:16:23;24.98;;;9.93;;
44476;SDS011;30180;44.788;10.366;2022-12-08T15:19:00;25.77;;;9.18;;
44476;SDS011;30180;44.788;10.366;2022-12-08T15:21:33;24.00;;;10.15;;
44476;SDS011;30180;44.788;10.366;2022-12-08T15:24:04;24.25;;;9.52;;
44476;SDS011;30180;44.788;10.366;2022-12-08T15:26:38;20.83;;;9.25;;
44476;SDS011;30180;44.788;10.366;2022-12-08T15:29:09;27.33;;;10.05;;
44476;SDS011;30180;44.788;10.366;2022-12-08T15:34:07;18.75;;;8.95;;
44476;SDS011;30180;44.788;10.366;2022-12-08T15:36:37;21.50;;;9.02;;